createdAt,value
2022-09-14T00:01:26.864Z,1.67
2022-09-14T00:03:56.202Z,1.60
2022-09-14T00:06:23.746Z,1.70
2022-09-14T00:08:55.082Z,1.45
2022-09-14T00:11:23.821Z,1.40
2022-09-14T00:13:50.848Z,1.83
2022-09-14T00:16:26.197Z,2.08
2022-09-14T00:18:54.930Z,1.85
2022-09-14T00:21:22.134Z,1.40
2022-09-14T00:23:48.931Z,1.80
2022-09-14T00:26:18.554Z,1.52
2022-09-14T00:28:47.976Z,1.83
2022-09-14T00:31:14.883Z,1.50
2022-09-14T00:33:43.293Z,1.75
2022-09-14T00:36:13.541Z,1.70
2022-09-14T00:39:19.098Z,1.52
2022-09-14T00:41:53.362Z,1.40
2022-09-14T00:44:25.066Z,1.30
2022-09-14T00:46:56.037Z,1.38
2022-09-14T00:49:35.475Z,1.73
2022-09-14T00:52:16.276Z,1.40
2022-09-14T00:54:47.529Z,1.50
2022-09-14T00:57:16.194Z,1.60
2022-09-14T00:59:44.044Z,1.58
2022-09-14T01:02:14.892Z,1.90
2022-09-14T01:04:43.256Z,1.70
2022-09-14T01:07:19.037Z,1.77
2022-09-14T01:09:57.473Z,1.88
2022-09-14T01:12:51.887Z,1.40
2022-09-14T01:15:29.812Z,1.87
2022-09-14T01:18:12.667Z,1.48
2022-09-14T01:20:46.543Z,1.70
2022-09-14T01:23:37.767Z,1.30
2022-09-14T01:26:38.143Z,1.30
2022-09-14T01:29:26.543Z,1.60
2022-09-14T01:32:04.376Z,2.20
2022-09-14T01:34:31.731Z,1.65
2022-09-14T01:37:06.625Z,1.90
2022-09-14T01:39:35.963Z,1.60
2022-09-14T01:42:03.708Z,1.73
2022-09-14T01:44:35.775Z,1.85
2022-09-14T01:47:09.836Z,1.70
2022-09-14T01:49:43.228Z,1.50
2022-09-14T01:52:27.498Z,1.70
2022-09-14T01:55:04.252Z,1.80
2022-09-14T01:57:48.219Z,1.75
2022-09-14T02:00:19.199Z,1.50
2022-09-14T02:02:58.630Z,1.60
2022-09-14T02:05:38.886Z,1.50
2022-09-14T02:08:05.680Z,1.43
2022-09-14T02:10:32.922Z,1.40
2022-09-14T02:12:59.597Z,1.70
2022-09-14T02:15:27.138Z,1.52
2022-09-14T02:17:54.795Z,1.50
2022-09-14T02:20:41.673Z,1.40
2022-09-14T02:23:08.735Z,1.33
2022-09-14T02:25:36.485Z,1.63
2022-09-14T02:28:04.844Z,1.33
2022-09-14T02:30:39.675Z,1.60
2022-09-14T02:33:15.785Z,1.83
2022-09-14T02:35:49.780Z,1.70
2022-09-14T02:38:42.059Z,1.70
2022-09-14T02:41:39.723Z,1.38
2022-09-14T02:44:11.835Z,1.55
2022-09-14T02:46:51.226Z,1.77
2022-09-14T02:49:48.569Z,1.50
2022-09-14T02:52:40.045Z,1.50
2022-09-14T02:55:11.899Z,1.42
2022-09-14T02:58:06.908Z,1.60
2022-09-14T03:00:38.979Z,1.50
2022-09-14T03:03:06.885Z,1.40
2022-09-14T03:05:34.254Z,1.58
2022-09-14T03:08:01.845Z,1.48
2022-09-14T03:10:28.765Z,1.75
2022-09-14T03:12:56.840Z,1.87
2022-09-14T03:15:23.723Z,1.50
2022-09-14T03:17:51.398Z,1.77
2022-09-14T03:20:22.409Z,1.80
2022-09-14T03:22:49.282Z,1.45
2022-09-14T03:25:16.500Z,1.73
2022-09-14T03:27:44.239Z,1.20
2022-09-14T03:30:11.463Z,1.50
2022-09-14T03:32:38.287Z,1.70
2022-09-14T03:35:05.391Z,1.55
2022-09-14T03:37:32.008Z,1.70
2022-09-14T03:39:58.621Z,1.80
2022-09-14T03:42:25.253Z,1.70
2022-09-14T03:44:51.819Z,2.20
2022-09-14T03:47:18.445Z,1.40
2022-09-14T03:49:45.027Z,1.77
2022-09-14T03:52:11.649Z,1.45
2022-09-14T03:54:38.232Z,1.60
2022-09-14T03:57:05.209Z,1.50
2022-09-14T03:59:31.747Z,1.58
2022-09-14T04:01:59.178Z,1.60
2022-09-14T04:04:26.588Z,1.60
2022-09-14T04:06:53.148Z,1.42
2022-09-14T04:09:19.733Z,2.13
2022-09-14T04:11:46.892Z,1.88
2022-09-14T04:14:14.403Z,1.73
2022-09-14T04:16:41.739Z,1.60
2022-09-14T04:19:10.380Z,1.80
2022-09-14T04:21:37.141Z,2.15
2022-09-14T04:24:14.584Z,1.73
2022-09-14T04:26:42.495Z,2.10
2022-09-14T04:29:10.621Z,1.98
2022-09-14T04:31:37.298Z,1.80
2022-09-14T04:34:04.098Z,1.98
2022-09-14T04:36:31.274Z,2.00
2022-09-14T04:39:00.346Z,2.00
2022-09-14T04:41:28.524Z,1.90
2022-09-14T04:43:56.503Z,2.00
2022-09-14T04:46:29.064Z,2.35
2022-09-14T04:48:55.923Z,2.03
2022-09-14T04:51:25.237Z,2.10
2022-09-14T04:53:53.731Z,2.00
2022-09-14T04:56:22.327Z,2.10
2022-09-14T04:58:52.006Z,1.92
2022-09-14T05:01:21.802Z,2.35
2022-09-14T05:03:48.762Z,1.90
2022-09-14T05:06:18.046Z,2.10
2022-09-14T05:08:45.351Z,2.40
2022-09-14T05:11:17.984Z,2.67
2022-09-14T05:13:49.569Z,2.65
2022-09-14T05:16:19.502Z,2.30
2022-09-14T05:18:46.470Z,2.58
2022-09-14T05:21:15.580Z,2.30
2022-09-14T05:23:42.785Z,2.60
2022-09-14T05:26:09.521Z,2.42
2022-09-14T05:28:36.883Z,2.17
2022-09-14T05:31:09.454Z,2.30
2022-09-14T05:33:36.777Z,1.73
2022-09-14T05:36:08.002Z,2.30
2022-09-14T05:38:38.539Z,2.33
2022-09-14T05:41:06.501Z,2.20
2022-09-14T05:43:33.548Z,2.33
2022-09-14T05:46:08.511Z,2.50
2022-09-14T05:48:36.688Z,1.88
2022-09-14T05:51:07.291Z,2.60
2022-09-14T05:53:34.596Z,2.47
2022-09-14T05:56:03.324Z,2.10
2022-09-14T05:58:30.352Z,2.50
2022-09-14T06:00:57.900Z,2.33
2022-09-14T06:03:25.045Z,2.50
2022-09-14T06:05:54.690Z,2.33
2022-09-14T06:08:21.846Z,1.85
2022-09-14T06:10:48.696Z,2.58
2022-09-14T06:13:15.360Z,2.38
2022-09-14T06:15:41.940Z,2.00
2022-09-14T06:18:08.551Z,2.20
2022-09-14T06:20:35.232Z,2.60
2022-09-14T06:23:01.826Z,2.70
2022-09-14T06:25:28.680Z,2.60
2022-09-14T06:27:55.290Z,2.60
2022-09-14T06:30:21.860Z,2.63
2022-09-14T06:32:48.416Z,2.47
2022-09-14T06:35:15.039Z,2.70
2022-09-14T06:37:41.580Z,2.70
2022-09-14T06:40:08.625Z,2.35
2022-09-14T06:42:35.656Z,2.57
2022-09-14T06:45:02.212Z,2.85
2022-09-14T06:47:32.576Z,3.38
2022-09-14T06:49:59.197Z,3.10
2022-09-14T06:52:25.752Z,3.30
2022-09-14T06:54:52.333Z,2.80
2022-09-14T06:57:19.051Z,2.90
2022-09-14T06:59:45.708Z,2.97
2022-09-14T07:02:13.632Z,3.38
2022-09-14T07:04:40.359Z,3.08
2022-09-14T07:07:06.906Z,3.27
2022-09-14T07:09:33.472Z,2.75
2022-09-14T07:12:00.037Z,3.08
2022-09-14T07:14:30.364Z,2.90
2022-09-14T07:16:58.729Z,2.85
2022-09-14T07:19:25.302Z,2.80
2022-09-14T07:21:53.803Z,3.17
2022-09-14T07:24:20.564Z,3.17
2022-09-14T07:26:47.322Z,2.90
2022-09-14T07:29:17.318Z,3.13
2022-09-14T07:31:52.524Z,3.50
2022-09-14T07:34:19.689Z,3.17
2022-09-14T07:36:46.672Z,3.08
2022-09-14T07:39:15.162Z,3.10
2022-09-14T07:41:43.256Z,3.28
2022-09-14T07:44:12.694Z,3.13
2022-09-14T07:46:41.491Z,3.00
2022-09-14T07:49:08.760Z,3.20
2022-09-14T07:51:36.662Z,3.33
2022-09-14T07:54:05.364Z,3.30
2022-09-14T07:56:32.548Z,2.97
2022-09-14T07:59:23.839Z,3.10
2022-09-14T08:01:46.709Z,3.00
2022-09-14T08:04:13.695Z,2.60
2022-09-14T08:06:44.678Z,2.35
2022-09-14T08:09:11.325Z,3.17
2022-09-14T08:11:38.526Z,3.10
2022-09-14T08:14:11.270Z,3.42
2022-09-14T08:16:39.062Z,3.20
2022-09-14T08:19:17.423Z,2.88
2022-09-14T08:21:47.115Z,3.00
2022-09-14T08:24:17.516Z,3.13
2022-09-14T08:26:44.618Z,2.60
2022-09-14T08:29:13.024Z,2.47
2022-09-14T08:31:39.955Z,2.50
2022-09-14T08:34:07.173Z,2.60
2022-09-14T08:36:36.828Z,2.70
2022-09-14T08:39:09.289Z,2.60
2022-09-14T08:41:44.834Z,2.53
2022-09-14T08:44:18.003Z,2.08
2022-09-14T08:46:53.398Z,2.23
2022-09-14T08:49:33.944Z,2.53
2022-09-14T08:52:00.539Z,2.10
2022-09-14T08:54:27.156Z,2.45
2022-09-14T08:57:18.139Z,2.20
2022-09-14T08:59:47.483Z,2.43
2022-09-14T09:02:46.504Z,2.60
2022-09-14T09:05:25.896Z,2.20
2022-09-14T09:08:26.911Z,2.22
2022-09-14T09:10:54.885Z,2.40
2022-09-14T09:13:26.237Z,2.07
2022-09-14T09:16:00.419Z,2.30
2022-09-14T09:18:39.198Z,2.00
2022-09-14T09:21:12.584Z,1.92
2022-09-14T09:23:40.928Z,2.35
2022-09-14T09:26:16.716Z,2.60
2022-09-14T09:28:49.878Z,2.22
2022-09-14T09:31:23.036Z,2.38
2022-09-14T09:33:56.160Z,2.70
2022-09-14T09:36:22.912Z,2.50
2022-09-14T09:38:49.507Z,2.20
2022-09-14T09:41:23.827Z,2.80
2022-09-14T09:44:06.949Z,2.42
2022-09-14T09:46:35.825Z,2.60
2022-09-14T09:49:06.631Z,2.78
2022-09-14T09:51:34.636Z,2.23
2022-09-14T09:57:32.083Z,2.97
2022-09-14T10:00:31.295Z,2.58
2022-09-14T10:02:58.675Z,3.00
2022-09-14T10:05:34.669Z,3.27
2022-09-14T10:08:06.949Z,2.83
2022-09-14T10:10:35.987Z,2.35
2022-09-14T10:13:06.142Z,2.70
2022-09-14T10:15:34.916Z,2.30
2022-09-14T10:18:14.144Z,2.73
2022-09-14T10:20:42.946Z,2.22
2022-09-14T10:23:26.691Z,2.60
2022-09-14T10:26:13.271Z,3.00
2022-09-14T10:28:45.847Z,2.60
2022-09-14T10:31:15.863Z,2.13
2022-09-14T10:33:42.813Z,2.70
2022-09-14T10:36:29.960Z,2.70
2022-09-14T10:39:26.156Z,2.25
2022-09-14T10:42:19.409Z,2.47
2022-09-14T10:45:00.996Z,2.20
2022-09-14T10:47:55.555Z,2.65
2022-09-14T10:50:53.734Z,2.60
2022-09-14T10:53:31.297Z,2.50
2022-09-14T10:56:10.184Z,2.90
2022-09-14T10:58:59.232Z,2.53
2022-09-14T11:02:12.156Z,2.35
2022-09-14T11:04:59.226Z,3.28
2022-09-14T11:07:35.347Z,2.75
2022-09-14T11:10:36.536Z,2.92
2022-09-14T11:13:59.012Z,2.77
2022-09-14T11:16:52.721Z,3.08
2022-09-14T11:19:43.193Z,3.03
2022-09-14T11:25:35.279Z,2.70
2022-09-14T11:28:17.134Z,2.67
2022-09-14T11:33:48.087Z,2.50
2022-09-14T11:39:35.476Z,3.08
2022-09-14T11:42:16.536Z,2.60
2022-09-14T11:44:47.555Z,2.78
2022-09-14T11:47:27.408Z,2.80
2022-09-14T11:50:00.262Z,2.47
2022-09-14T11:52:29.988Z,6.65
2022-09-14T11:54:58.526Z,4.73
2022-09-14T11:57:31.286Z,10.98
2022-09-14T12:00:07.245Z,4.45
2022-09-14T12:02:37.087Z,3.65
2022-09-14T12:05:10.345Z,2.55
2022-09-14T12:07:40.314Z,2.37
2022-09-14T12:10:16.597Z,2.30
2022-09-14T12:12:44.384Z,2.53
2022-09-14T12:15:27.017Z,2.53
2022-09-14T12:18:05.788Z,2.60
2022-09-14T12:20:43.501Z,1.80
2022-09-14T12:23:16.001Z,2.65
2022-09-14T12:26:03.665Z,2.55
2022-09-14T12:28:43.505Z,1.92
2022-09-14T12:31:55.500Z,2.15
2022-09-14T12:34:45.899Z,2.00
2022-09-14T12:37:32.400Z,2.45
2022-09-14T12:43:35.010Z,2.42
2022-09-14T12:46:12.079Z,2.97
2022-09-14T12:48:54.575Z,2.20
2022-09-14T12:51:59.825Z,2.22
2022-09-14T12:55:21.568Z,1.83
2022-09-14T12:58:26.333Z,1.63
2022-09-14T13:01:24.534Z,1.95
2022-09-14T13:03:58.084Z,1.80
2022-09-14T13:06:58.166Z,2.45
2022-09-14T13:09:46.629Z,2.20
2022-09-14T13:12:50.980Z,2.08
2022-09-14T13:15:20.844Z,2.63
2022-09-14T13:18:04.236Z,2.38
2022-09-14T13:20:33.857Z,2.35
2022-09-14T13:23:03.893Z,1.60
2022-09-14T13:25:32.857Z,1.50
2022-09-14T13:28:06.579Z,1.67
2022-09-14T13:30:43.846Z,1.80
2022-09-14T13:33:21.171Z,1.50
2022-09-14T13:36:02.937Z,1.90
2022-09-14T13:38:36.469Z,2.28
2022-09-14T13:41:17.490Z,2.15
2022-09-14T13:43:47.206Z,1.65
2022-09-14T13:46:19.646Z,1.75
2022-09-14T13:48:47.334Z,1.77
2022-09-14T13:51:14.836Z,1.80
2022-09-14T13:53:48.954Z,2.25
2022-09-14T13:56:42.694Z,1.85
2022-09-14T13:59:10.449Z,1.70
2022-09-14T14:01:43.627Z,2.15
2022-09-14T14:04:34.961Z,1.88
2022-09-14T14:07:07.354Z,1.92
2022-09-14T14:09:42.841Z,1.90
2022-09-14T14:12:11.740Z,1.70
2022-09-14T14:14:38.766Z,2.20
2022-09-14T14:17:31.808Z,2.15
2022-09-14T14:20:35.395Z,2.08
2022-09-14T14:23:19.807Z,1.92
2022-09-14T14:28:45.677Z,2.08
2022-09-14T14:31:18.263Z,1.70
2022-09-14T14:33:47.084Z,1.77
2022-09-14T14:36:15.099Z,1.83
2022-09-14T14:38:44.251Z,2.05
2022-09-14T14:41:23.659Z,1.90
2022-09-14T14:43:51.032Z,1.70
2022-09-14T14:46:18.039Z,2.08
2022-09-14T14:48:47.004Z,1.52
2022-09-14T14:51:15.173Z,2.45
2022-09-14T14:53:42.598Z,1.90
2022-09-14T14:56:13.661Z,1.67
2022-09-14T14:58:45.769Z,1.60
2022-09-14T15:01:13.812Z,1.67
2022-09-14T15:03:40.533Z,1.85
2022-09-14T15:06:17.897Z,1.70
2022-09-14T15:08:44.602Z,1.70
2022-09-14T15:11:16.946Z,1.83
2022-09-14T15:13:44.470Z,2.08
2022-09-14T15:16:11.322Z,1.80
2022-09-14T15:18:37.972Z,1.88
2022-09-14T15:21:04.748Z,1.48
2022-09-14T15:23:31.654Z,2.20
2022-09-14T15:26:01.149Z,2.05
2022-09-14T15:28:27.824Z,2.17
2022-09-14T15:30:54.415Z,1.95
2022-09-14T15:33:20.984Z,1.98
2022-09-14T15:35:55.216Z,2.17
2022-09-14T15:38:21.832Z,2.05
2022-09-14T15:40:48.549Z,1.67
2022-09-14T15:43:15.135Z,1.42
2022-09-14T15:45:42.848Z,1.77
2022-09-14T15:48:14.680Z,2.33
2022-09-14T15:50:43.564Z,2.42
2022-09-14T15:53:15.307Z,1.60
2022-09-14T15:55:44.355Z,2.25
2022-09-14T15:58:11.641Z,1.98
2022-09-14T16:00:43.219Z,1.70
2022-09-14T16:03:09.821Z,1.95
2022-09-14T16:05:40.037Z,1.67
2022-09-14T16:08:07.103Z,1.88
2022-09-14T16:10:34.341Z,1.80
2022-09-14T16:13:00.984Z,1.55
2022-09-14T16:15:27.733Z,1.50
2022-09-14T16:17:55.360Z,1.70
2022-09-14T16:20:22.527Z,1.60
2022-09-14T16:22:49.648Z,1.63
2022-09-14T16:25:16.515Z,1.70
2022-09-14T16:27:43.164Z,1.50
2022-09-14T16:30:10.404Z,1.55
2022-09-14T16:32:37.124Z,1.35
2022-09-14T16:35:07.977Z,1.25
2022-09-14T16:37:34.979Z,1.50
2022-09-14T16:40:02.819Z,1.40
2022-09-14T16:42:29.444Z,1.85
2022-09-14T16:44:55.984Z,1.60
2022-09-14T16:47:22.564Z,1.27
2022-09-14T16:49:49.203Z,1.50
2022-09-14T16:52:15.743Z,1.27
2022-09-14T16:54:42.626Z,1.70
2022-09-14T16:57:09.726Z,1.85
2022-09-14T16:59:36.419Z,1.77
2022-09-14T17:02:03.199Z,1.10
2022-09-14T17:04:29.802Z,1.20
2022-09-14T17:06:56.647Z,1.23
2022-09-14T17:09:26.523Z,1.40
2022-09-14T17:11:54.229Z,1.45
2022-09-14T17:14:28.279Z,1.40
2022-09-14T17:16:55.440Z,1.40
2022-09-14T17:19:22.115Z,1.10
2022-09-14T17:21:49.167Z,1.13
2022-09-14T17:24:17.105Z,1.15
2022-09-14T17:26:44.009Z,1.10
2022-09-14T17:29:11.385Z,1.20
2022-09-14T17:31:40.489Z,1.20
2022-09-14T17:34:09.086Z,1.30
2022-09-14T17:36:35.886Z,1.30
2022-09-14T17:39:09.198Z,1.13
2022-09-14T17:41:38.920Z,1.35
2022-09-14T17:44:06.800Z,1.30
2022-09-14T17:46:34.061Z,1.25
2022-09-14T17:49:04.111Z,1.40
2022-09-14T17:51:32.709Z,1.20
2022-09-14T17:54:00.908Z,1.42
2022-09-14T17:56:29.387Z,1.20
2022-09-14T17:59:08.023Z,1.45
2022-09-14T18:01:34.798Z,1.38
2022-09-14T18:04:04.692Z,1.30
2022-09-14T18:06:38.302Z,1.60
2022-09-14T18:09:08.992Z,1.23
2022-09-14T18:11:36.376Z,1.30
2022-09-14T18:14:04.497Z,1.20
2022-09-14T18:16:31.737Z,1.77
2022-09-14T18:18:58.741Z,1.30
2022-09-14T18:21:26.137Z,1.05
2022-09-14T18:23:54.724Z,1.48
2022-09-14T18:26:22.604Z,1.20
2022-09-14T18:28:50.924Z,1.10
2022-09-14T18:31:19.014Z,1.20
2022-09-14T18:33:58.960Z,1.67
2022-09-14T18:36:29.213Z,1.33
2022-09-14T18:38:56.939Z,1.20
2022-09-14T18:41:23.607Z,1.25
2022-09-14T18:43:53.018Z,1.80
2022-09-14T18:46:23.268Z,1.30
2022-09-14T18:48:54.084Z,1.48
2022-09-14T18:51:21.766Z,1.30
2022-09-14T18:53:49.081Z,1.50
2022-09-14T18:56:17.467Z,1.00
2022-09-14T18:58:46.284Z,1.60
2022-09-14T19:01:14.046Z,1.20
2022-09-14T19:03:42.317Z,1.50
2022-09-14T19:06:14.303Z,1.20
2022-09-14T19:08:41.904Z,1.10
2022-09-14T19:11:11.856Z,1.50
2022-09-14T19:13:39.155Z,1.00
2022-09-14T19:16:11.428Z,1.23
2022-09-14T19:18:38.832Z,1.58
2022-09-14T19:21:07.403Z,1.43
2022-09-14T19:23:35.267Z,1.25
2022-09-14T19:26:23.357Z,1.50
2022-09-14T19:28:50.038Z,1.65
2022-09-14T19:31:18.990Z,1.42
2022-09-14T19:33:45.975Z,1.30
2022-09-14T19:36:16.200Z,1.42
2022-09-14T19:38:43.480Z,1.52
2022-09-14T19:41:10.406Z,1.40
2022-09-14T19:43:37.686Z,1.30
2022-09-14T19:46:10.517Z,1.40
2022-09-14T19:48:37.872Z,1.40
2022-09-14T19:51:07.104Z,1.13
2022-09-14T19:53:35.802Z,1.00
2022-09-14T19:56:05.429Z,1.35
2022-09-14T19:58:36.316Z,1.43
2022-09-14T20:01:03.504Z,1.13
2022-09-14T20:03:30.174Z,1.38
2022-09-14T20:06:05.779Z,1.33
2022-09-14T20:08:33.818Z,1.60
2022-09-14T20:11:11.485Z,1.13
2022-09-14T20:13:39.215Z,1.17
2022-09-14T20:16:17.803Z,1.60
2022-09-14T20:18:45.702Z,1.13
2022-09-14T20:21:15.471Z,1.30
2022-09-14T20:23:52.648Z,1.53
2022-09-14T20:26:30.002Z,1.17
2022-09-14T20:28:59.848Z,1.75
2022-09-14T20:31:27.209Z,1.23
2022-09-14T20:33:54.318Z,1.30
2022-09-14T20:36:21.993Z,1.80
2022-09-14T20:38:54.419Z,1.90
2022-09-14T20:41:23.620Z,1.60
2022-09-14T20:43:50.656Z,1.27
2022-09-14T20:46:20.432Z,1.33
2022-09-14T20:48:48.592Z,1.67
2022-09-14T20:54:04.859Z,1.58
2022-09-14T20:56:33.580Z,1.50
2022-09-14T20:59:02.275Z,1.50
2022-09-14T21:01:31.380Z,1.33
2022-09-14T21:04:06.610Z,1.38
2022-09-14T21:06:36.395Z,1.40
2022-09-14T21:09:03.735Z,1.83
2022-09-14T21:11:12.009Z,1.40
2022-09-14T21:11:30.968Z,1.67
2022-09-14T21:13:58.038Z,1.60
2022-09-14T21:16:30.222Z,1.30
2022-09-14T21:19:03.096Z,1.75
2022-09-14T21:21:30.425Z,1.58
2022-09-14T21:23:58.416Z,1.55
2022-09-14T21:26:27.532Z,1.77
2022-09-14T21:28:56.984Z,1.80
2022-09-14T21:31:24.942Z,1.40
2022-09-14T21:33:54.472Z,1.80
2022-09-14T21:36:26.939Z,1.60
2022-09-14T21:38:59.577Z,1.60
2022-09-14T21:41:28.252Z,1.30
2022-09-14T21:43:55.579Z,1.40
2022-09-14T21:46:23.020Z,1.60
2022-09-14T21:48:49.918Z,1.48
2022-09-14T21:51:22.455Z,1.37
2022-09-14T21:54:00.678Z,1.63
2022-09-14T21:56:29.655Z,1.52
2022-09-14T21:59:01.320Z,1.30
2022-09-14T22:01:29.228Z,1.52
2022-09-14T22:03:56.912Z,1.43
2022-09-14T22:06:27.266Z,1.60
2022-09-14T22:08:54.504Z,1.27
2022-09-14T22:11:26.886Z,1.40
2022-09-14T22:13:55.271Z,1.20
2022-09-14T22:16:23.254Z,1.40
2022-09-14T22:18:52.762Z,1.30
2022-09-14T22:21:21.323Z,1.40
2022-09-14T22:23:57.188Z,1.42
2022-09-14T22:26:25.096Z,1.33
2022-09-14T22:28:53.603Z,1.43
2022-09-14T22:31:21.641Z,1.30
2022-09-14T22:33:49.407Z,1.20
2022-09-14T22:36:16.542Z,1.35
2022-09-14T22:38:43.145Z,1.40
2022-09-14T22:41:12.007Z,1.50
2022-09-14T22:43:39.974Z,1.40
2022-09-14T22:46:08.112Z,1.42
2022-09-14T22:48:35.296Z,1.38
2022-09-14T22:51:02.734Z,1.52
2022-09-14T22:53:29.636Z,1.53
2022-09-14T22:55:56.832Z,1.58
2022-09-14T22:58:26.975Z,1.83
2022-09-14T23:00:54.030Z,1.77
2022-09-14T23:03:20.872Z,1.67
2022-09-14T23:05:58.941Z,1.40
2022-09-14T23:08:27.089Z,1.58
2022-09-14T23:10:54.779Z,1.60
2022-09-14T23:13:21.567Z,1.75
2022-09-14T23:15:48.334Z,1.88
2022-09-14T23:18:15.126Z,2.13
2022-09-14T23:20:43.876Z,2.00
2022-09-14T23:23:11.593Z,1.73
2022-09-14T23:25:39.755Z,1.90
2022-09-14T23:28:07.736Z,1.90
2022-09-14T23:30:34.394Z,1.70
2022-09-14T23:33:01.650Z,1.92
2022-09-14T23:35:29.017Z,1.70
2022-09-14T23:37:56.213Z,1.60
2022-09-14T23:40:23.833Z,1.50
2022-09-14T23:42:50.631Z,1.70
2022-09-14T23:45:17.523Z,1.42
2022-09-14T23:47:45.910Z,1.85
2022-09-14T23:50:12.505Z,2.10
2022-09-14T23:52:40.507Z,1.80
2022-09-14T23:55:07.525Z,1.57
2022-09-14T23:57:34.150Z,1.75
